createdAt,value
2017-09-11T00:00:50.915Z,0
2017-09-11T00:01:44.892Z,0
2017-09-11T00:02:39.998Z,0
2017-09-11T00:03:40.532Z,0
2017-09-11T00:04:35.007Z,0
2017-09-11T00:05:30.446Z,0
2017-09-11T00:06:25.180Z,0
2017-09-11T00:07:14.203Z,0
2017-09-11T00:08:09.444Z,0
2017-09-11T00:08:58.894Z,0
2017-09-11T00:09:46.289Z,0
2017-09-11T00:10:41.341Z,0
2017-09-11T00:11:41.440Z,0
2017-09-11T00:12:41.502Z,0
2017-09-11T00:13:35.427Z,0
2017-09-11T00:14:24.428Z,0
2017-09-11T00:15:24.505Z,0
2017-09-11T00:16:13.729Z,0
2017-09-11T00:17:07.855Z,0
2017-09-11T00:18:01.657Z,0
2017-09-11T00:19:02.820Z,0
2017-09-11T00:19:51.622Z,0
2017-09-11T00:20:39.802Z,0
2017-09-11T00:21:27.750Z,0
2017-09-11T00:22:29.240Z,0
2017-09-11T00:23:23.336Z,0
2017-09-11T00:24:16.818Z,0
2017-09-11T00:25:11.957Z,0
2017-09-11T00:26:05.947Z,0
2017-09-11T00:26:55.000Z,0
2017-09-11T00:27:50.058Z,0
2017-09-11T00:28:45.045Z,0
2017-09-11T00:29:45.116Z,0
2017-09-11T00:30:39.136Z,0
2017-09-11T00:31:33.802Z,0
2017-09-11T00:32:34.839Z,0
2017-09-11T00:33:29.576Z,0
2017-09-11T00:34:24.318Z,0
2017-09-11T00:35:24.327Z,0
2017-09-11T00:36:13.644Z,0
2017-09-11T00:37:08.416Z,0
2017-09-11T00:38:08.492Z,0
2017-09-11T00:39:02.587Z,0
2017-09-11T00:40:03.870Z,0
2017-09-11T00:41:03.605Z,0
2017-09-11T00:42:03.532Z,0
2017-09-11T00:42:52.715Z,0
2017-09-11T00:43:47.830Z,0
2017-09-11T00:44:41.619Z,0
2017-09-11T00:45:41.803Z,0
2017-09-11T00:46:41.743Z,0
2017-09-11T00:47:36.818Z,0
2017-09-11T00:48:30.958Z,0
2017-09-11T00:49:24.912Z,0
2017-09-11T00:50:19.992Z,0
2017-09-11T00:51:14.197Z,0
2017-09-11T00:52:08.961Z,0
2017-09-11T00:53:03.016Z,0
2017-09-11T00:53:57.058Z,0
2017-09-11T00:54:52.627Z,0
2017-09-11T00:55:46.655Z,0
2017-09-11T00:56:46.227Z,0
2017-09-11T00:57:41.656Z,0
2017-09-11T00:58:36.171Z,0
2017-09-11T00:59:36.215Z,0
2017-09-11T01:00:31.302Z,0
2017-09-11T01:01:31.959Z,0
2017-09-11T01:02:20.364Z,0
2017-09-11T01:03:15.401Z,0
2017-09-11T01:04:15.433Z,0
2017-09-11T01:05:10.383Z,0
2017-09-11T01:06:05.657Z,0
2017-09-11T01:06:59.578Z,0
2017-09-11T01:07:47.504Z,0
2017-09-11T01:08:41.534Z,0
2017-09-11T01:09:41.739Z,0
2017-09-11T01:10:35.913Z,0
2017-09-11T01:11:29.806Z,0
2017-09-11T01:12:23.868Z,0
2017-09-11T01:13:23.980Z,0
2017-09-11T01:14:17.912Z,0
2017-09-11T01:15:12.381Z,0
2017-09-11T01:16:06.140Z,0
2017-09-11T01:17:05.973Z,0
2017-09-11T01:18:06.022Z,0
2017-09-11T01:19:01.046Z,0
2017-09-11T01:19:55.083Z,0
2017-09-11T01:20:49.558Z,0
2017-09-11T01:21:43.149Z,0
2017-09-11T01:22:49.117Z,0
2017-09-11T01:23:49.546Z,0
2017-09-11T01:24:43.220Z,0
2017-09-11T01:25:43.279Z,0
2017-09-11T01:26:38.295Z,0
2017-09-11T01:27:32.380Z,0
2017-09-11T01:28:32.819Z,0
2017-09-11T01:29:26.510Z,0
2017-09-11T01:30:21.522Z,0
2017-09-11T01:31:15.791Z,0
2017-09-11T01:32:09.525Z,0
2017-09-11T01:33:04.076Z,0
2017-09-11T01:33:58.559Z,0
2017-09-11T01:34:58.567Z,0
2017-09-11T01:35:53.922Z,0
2017-09-11T01:36:53.753Z,0
2017-09-11T01:37:42.682Z,0
2017-09-11T01:38:36.789Z,0
2017-09-11T01:39:32.396Z,0
2017-09-11T01:40:31.900Z,0
2017-09-11T01:41:26.282Z,0
2017-09-11T01:42:26.130Z,0
2017-09-11T01:43:20.962Z,0
2017-09-11T01:44:21.254Z,0
2017-09-11T01:45:16.102Z,0
2017-09-11T01:46:16.504Z,0
2017-09-11T01:47:10.320Z,0
2017-09-11T01:48:04.447Z,0
2017-09-11T01:48:59.169Z,0
2017-09-11T01:49:53.263Z,0
2017-09-11T01:50:47.800Z,0
2017-09-11T01:51:42.320Z,0
2017-09-11T01:52:42.329Z,0
2017-09-11T01:53:36.837Z,0
2017-09-11T01:54:30.424Z,0
2017-09-11T01:55:24.723Z,0
2017-09-11T01:56:24.951Z,0
2017-09-11T01:57:13.591Z,0
2017-09-11T01:58:07.553Z,0
2017-09-11T01:59:02.570Z,0
2017-09-11T01:59:51.667Z,0
2017-09-11T02:00:47.111Z,0
2017-09-11T02:01:36.283Z,0
2017-09-11T02:02:24.946Z,0
2017-09-11T02:03:24.922Z,0
2017-09-11T02:04:12.882Z,0
2017-09-11T02:05:13.275Z,0
2017-09-11T02:06:07.389Z,0
2017-09-11T02:07:07.981Z,0
2017-09-11T02:08:02.304Z,0
2017-09-11T02:08:56.506Z,0
2017-09-11T02:09:44.991Z,0
2017-09-11T02:10:39.347Z,0
2017-09-11T02:11:33.637Z,0
2017-09-11T02:12:22.202Z,0
2017-09-11T02:13:10.238Z,0
2017-09-11T02:14:04.486Z,0
2017-09-11T02:14:58.372Z,0
2017-09-11T02:15:58.296Z,0
2017-09-11T02:16:52.286Z,0
2017-09-11T02:17:46.419Z,0
2017-09-11T02:18:40.396Z,0
2017-09-11T02:19:35.553Z,0
2017-09-11T02:20:29.607Z,0
2017-09-11T02:21:23.547Z,0
2017-09-11T02:22:23.672Z,0
2017-09-11T02:23:18.547Z,0
2017-09-11T02:24:12.702Z,0
2017-09-11T02:25:12.796Z,0
2017-09-11T02:26:01.836Z,0
2017-09-11T02:26:55.738Z,0
2017-09-11T02:27:50.870Z,0
2017-09-11T02:28:44.785Z,0
2017-09-11T02:29:38.888Z,0
2017-09-11T02:30:33.890Z,0
2017-09-11T02:31:22.894Z,0
2017-09-11T02:32:16.958Z,0
2017-09-11T02:33:16.983Z,0
2017-09-11T02:34:11.090Z,0
2017-09-11T02:35:06.251Z,0
2017-09-11T02:35:55.163Z,0
2017-09-11T02:36:49.150Z,0
2017-09-11T02:37:44.295Z,0
2017-09-11T02:38:38.328Z,0
2017-09-11T02:39:44.274Z,0
2017-09-11T02:40:44.279Z,0
2017-09-11T02:41:38.674Z,0
2017-09-11T02:42:38.384Z,0
2017-09-11T02:43:33.430Z,0
2017-09-11T02:44:28.556Z,0
2017-09-11T02:45:22.618Z,0
2017-09-11T02:46:17.617Z,0
2017-09-11T02:47:06.535Z,0
2017-09-11T02:48:00.801Z,0
2017-09-11T02:48:56.195Z,0
2017-09-11T02:49:50.757Z,0
2017-09-11T02:50:38.687Z,0
2017-09-11T02:51:38.883Z,0
2017-09-11T02:52:33.850Z,0
2017-09-11T02:53:27.812Z,0
2017-09-11T02:54:23.181Z,0
2017-09-11T02:55:16.949Z,0
2017-09-11T02:56:10.946Z,0
2017-09-11T02:57:04.930Z,0
2017-09-11T02:57:54.055Z,0
2017-09-11T02:58:48.033Z,0
2017-09-11T02:59:42.081Z,0
2017-09-11T03:00:37.177Z,0
2017-09-11T03:01:31.656Z,0
2017-09-11T03:02:19.250Z,0
2017-09-11T03:03:19.312Z,0
2017-09-11T03:04:13.477Z,0
2017-09-11T03:05:08.778Z,0
2017-09-11T03:06:02.900Z,0
2017-09-11T03:06:57.383Z,0
2017-09-11T03:07:51.528Z,0
2017-09-11T03:08:57.827Z,0
2017-09-11T03:09:52.570Z,0
2017-09-11T03:10:40.575Z,0
2017-09-11T03:11:30.071Z,0
2017-09-11T03:12:24.573Z,0
2017-09-11T03:13:13.665Z,0
2017-09-11T03:14:07.704Z,0
2017-09-11T03:15:02.708Z,0
2017-09-11T03:16:03.147Z,0
2017-09-11T03:16:56.946Z,0
2017-09-11T03:17:51.285Z,0
2017-09-11T03:18:45.992Z,0
2017-09-11T03:19:34.959Z,0
2017-09-11T03:20:30.459Z,0
2017-09-11T03:21:24.094Z,0
2017-09-11T03:22:19.281Z,0
2017-09-11T03:23:08.142Z,0
2017-09-11T03:24:03.155Z,0
2017-09-11T03:24:57.212Z,0
2017-09-11T03:25:51.646Z,0
2017-09-11T03:26:51.369Z,0
2017-09-11T03:27:45.531Z,0
2017-09-11T03:28:46.308Z,0
2017-09-11T03:29:41.317Z,0
2017-09-11T03:30:42.490Z,0
2017-09-11T03:31:30.431Z,0
2017-09-11T03:32:30.909Z,0
2017-09-11T03:33:25.534Z,0
2017-09-11T03:34:19.530Z,0
2017-09-11T03:35:19.680Z,0
2017-09-11T03:36:14.805Z,0
2017-09-11T03:37:08.657Z,0
2017-09-11T03:38:03.724Z,0
2017-09-11T03:38:57.777Z,0
2017-09-11T03:39:51.689Z,0
2017-09-11T03:40:45.799Z,0
2017-09-11T03:41:40.107Z,0
2017-09-11T03:42:34.041Z,0
2017-09-11T03:43:28.943Z,0
2017-09-11T03:44:22.975Z,0
2017-09-11T03:45:18.122Z,0
2017-09-11T03:46:18.480Z,0
2017-09-11T03:47:06.083Z,0
2017-09-11T03:48:00.449Z,0
2017-09-11T03:48:54.619Z,0
2017-09-11T03:49:49.073Z,0
2017-09-11T03:50:43.185Z,0
2017-09-11T03:51:38.786Z,0
2017-09-11T03:52:33.256Z,0
2017-09-11T03:53:27.329Z,0
2017-09-11T03:54:27.306Z,0
2017-09-11T03:55:22.482Z,0
2017-09-11T03:56:17.923Z,0
2017-09-11T03:57:11.475Z,0
2017-09-11T03:58:06.459Z,0
2017-09-11T03:59:01.021Z,0
2017-09-11T04:00:00.507Z,0
2017-09-11T04:00:49.855Z,0
2017-09-11T04:01:49.694Z,0
2017-09-11T04:02:43.877Z,0
2017-09-11T04:03:44.714Z,0
2017-09-11T04:04:39.810Z,0
2017-09-11T04:05:33.773Z,0
2017-09-11T04:06:29.134Z,0
2017-09-11T04:07:23.774Z,0
2017-09-11T04:08:18.948Z,0
2017-09-11T04:09:13.005Z,0
2017-09-11T04:10:06.940Z,0
2017-09-11T04:11:07.368Z,0
2017-09-11T04:12:01.063Z,0
2017-09-11T04:12:55.322Z,0
2017-09-11T04:13:49.164Z,0
2017-09-11T04:14:44.132Z,0
2017-09-11T04:15:39.552Z,0
2017-09-11T04:16:39.736Z,0
2017-09-11T04:17:34.284Z,0
2017-09-11T04:18:29.293Z,0
2017-09-11T04:19:29.323Z,0
2017-09-11T04:20:24.376Z,0
2017-09-11T04:21:25.792Z,0
2017-09-11T04:22:25.410Z,0
2017-09-11T04:23:25.449Z,0
2017-09-11T04:24:20.558Z,0
2017-09-11T04:25:09.921Z,0
2017-09-11T04:26:04.115Z,0
2017-09-11T04:27:03.538Z,4
2017-09-11T04:27:52.700Z,4
2017-09-11T04:28:47.784Z,0
2017-09-11T04:29:42.752Z,4
2017-09-11T04:30:36.826Z,4
2017-09-11T04:31:30.838Z,8
2017-09-11T04:32:19.891Z,4
2017-09-11T04:33:08.969Z,8
2017-09-11T04:34:03.106Z,4
2017-09-11T04:34:58.076Z,8
2017-09-11T04:35:58.318Z,8
2017-09-11T04:36:53.553Z,12
2017-09-11T04:37:47.053Z,12
2017-09-11T04:38:42.069Z,16
2017-09-11T04:39:36.427Z,16
2017-09-11T04:40:25.195Z,16
2017-09-11T04:41:19.319Z,20
2017-09-11T04:42:20.192Z,20
2017-09-11T04:43:20.427Z,24
2017-09-11T04:44:14.268Z,28
2017-09-11T04:45:09.300Z,36
2017-09-11T04:46:04.368Z,44
2017-09-11T04:46:58.409Z,48
2017-09-11T04:47:53.380Z,56
2017-09-11T04:48:47.510Z,56
2017-09-11T04:49:42.482Z,64
2017-09-11T04:50:36.675Z,72
2017-09-11T04:51:36.959Z,80
2017-09-11T04:52:30.648Z,80
2017-09-11T04:53:24.680Z,72
2017-09-11T04:54:18.754Z,88
2017-09-11T04:55:06.783Z,96
2017-09-11T04:56:00.695Z,104
2017-09-11T04:56:54.808Z,120
2017-09-11T04:57:49.950Z,124
2017-09-11T04:58:49.881Z,144
2017-09-11T04:59:44.271Z,148
2017-09-11T05:00:44.240Z,176
2017-09-11T05:01:38.423Z,220
2017-09-11T05:02:32.023Z,304
2017-09-11T05:03:27.026Z,364
2017-09-11T05:04:16.103Z,444
2017-09-11T05:05:16.107Z,528
2017-09-11T05:06:16.184Z,612
2017-09-11T05:07:10.242Z,700
2017-09-11T05:08:11.167Z,784
2017-09-11T05:09:11.398Z,812
2017-09-11T05:10:11.249Z,848
2017-09-11T05:11:12.402Z,952
2017-09-11T05:12:06.520Z,1092
2017-09-11T05:13:06.506Z,1144
2017-09-11T05:14:01.755Z,1140
2017-09-11T05:14:56.579Z,1224
2017-09-11T05:15:57.128Z,1272
2017-09-11T05:16:52.168Z,1308
2017-09-11T05:17:46.593Z,1356
2017-09-11T05:18:40.862Z,1432
2017-09-11T05:19:35.654Z,1488
2017-09-11T05:20:30.680Z,1612
2017-09-11T05:21:19.775Z,1712
2017-09-11T05:22:13.826Z,1820
2017-09-11T05:23:13.792Z,1876
2017-09-11T05:24:08.098Z,1816
2017-09-11T05:24:57.015Z,1632
2017-09-11T05:25:57.467Z,1504
2017-09-11T05:26:52.230Z,1496
2017-09-11T05:27:47.034Z,1268
2017-09-11T05:28:41.000Z,1316
2017-09-11T05:29:35.157Z,1416
2017-09-11T05:30:30.483Z,1368
2017-09-11T05:31:24.373Z,1324
2017-09-11T05:32:24.096Z,1356
2017-09-11T05:33:18.400Z,1296
2017-09-11T05:34:07.290Z,1420
2017-09-11T05:35:02.382Z,1428
2017-09-11T05:36:03.492Z,1372
2017-09-11T05:37:03.466Z,1588
2017-09-11T05:38:03.385Z,1728
2017-09-11T05:39:03.383Z,1944
2017-09-11T05:39:58.520Z,2144
2017-09-11T05:40:54.101Z,2440
2017-09-11T05:41:48.790Z,2492
2017-09-11T05:42:37.697Z,2528
2017-09-11T05:43:37.635Z,2812
2017-09-11T05:44:32.766Z,3384
2017-09-11T05:45:20.736Z,3900
2017-09-11T05:46:20.780Z,4556
2017-09-11T05:47:10.369Z,4940
2017-09-11T05:47:59.055Z,5336
2017-09-11T05:48:58.939Z,5244
2017-09-11T05:49:52.972Z,5196
2017-09-11T05:50:54.527Z,4320
2017-09-11T05:51:54.096Z,4220
2017-09-11T05:52:42.035Z,4596
2017-09-11T05:53:36.203Z,4964
2017-09-11T05:54:30.549Z,7052
2017-09-11T05:55:19.182Z,7716
2017-09-11T05:56:19.202Z,4916
2017-09-11T05:57:08.306Z,4512
2017-09-11T05:58:03.152Z,4332
2017-09-11T05:58:57.370Z,4816
2017-09-11T05:59:52.443Z,5380
2017-09-11T06:00:47.450Z,5484
2017-09-11T06:01:36.550Z,5772
2017-09-11T06:02:30.416Z,6448
2017-09-11T06:03:30.542Z,5472
2017-09-11T06:04:24.664Z,4556
2017-09-11T06:05:12.489Z,4536
2017-09-11T06:06:12.494Z,4856
2017-09-11T06:07:12.607Z,5196
2017-09-11T06:08:12.758Z,5948
2017-09-11T06:09:07.723Z,6448
2017-09-11T06:10:02.838Z,7408
2017-09-11T06:11:03.958Z,7752
2017-09-11T06:12:03.907Z,6780
2017-09-11T06:13:03.919Z,5660
2017-09-11T06:13:57.945Z,4864
2017-09-11T06:14:57.961Z,4668
2017-09-11T06:15:52.065Z,4284
2017-09-11T06:16:52.408Z,4200
2017-09-11T06:17:46.061Z,4436
2017-09-11T06:18:40.029Z,4728
2017-09-11T06:19:35.108Z,4420
2017-09-11T06:20:29.095Z,3668
2017-09-11T06:21:18.389Z,2856
2017-09-11T06:22:24.219Z,2188
2017-09-11T06:23:18.269Z,2148
2017-09-11T06:24:13.331Z,2176
2017-09-11T06:25:08.410Z,2768
2017-09-11T06:26:02.357Z,3876
2017-09-11T06:27:02.339Z,5200
2017-09-11T06:27:56.526Z,5960
2017-09-11T06:28:50.963Z,6180
2017-09-11T06:29:50.506Z,5960
2017-09-11T06:30:39.647Z,5312
2017-09-11T06:31:27.939Z,5692
2017-09-11T06:32:27.671Z,5080
2017-09-11T06:33:22.928Z,6004
2017-09-11T06:34:11.822Z,6268
2017-09-11T06:34:59.805Z,6240
2017-09-11T06:35:54.336Z,5048
2017-09-11T06:36:49.365Z,4580
2017-09-11T06:37:43.295Z,4512
2017-09-11T06:38:37.291Z,4656
2017-09-11T06:39:32.386Z,4456
2017-09-11T06:40:32.226Z,3500
2017-09-11T06:41:26.426Z,2428
2017-09-11T06:42:15.296Z,1832
2017-09-11T06:43:16.561Z,1856
2017-09-11T06:44:11.661Z,1968
2017-09-11T06:45:05.532Z,1936
2017-09-11T06:45:59.748Z,2116
2017-09-11T06:46:59.625Z,2408
2017-09-11T06:47:54.634Z,3708
2017-09-11T06:48:42.653Z,4072
2017-09-11T06:49:37.382Z,3428
2017-09-11T06:50:38.732Z,3372
2017-09-11T06:51:33.698Z,3476
2017-09-11T06:52:28.806Z,3552
2017-09-11T06:53:23.871Z,3436
2017-09-11T06:54:12.094Z,3772
2017-09-11T06:55:12.000Z,4136
2017-09-11T06:56:06.982Z,3228
2017-09-11T06:56:56.032Z,2456
2017-09-11T06:57:50.060Z,3400
2017-09-11T06:58:39.236Z,6160
2017-09-11T06:59:33.010Z,7704
2017-09-11T07:00:34.151Z,8764
2017-09-11T07:01:34.322Z,9764
2017-09-11T07:02:29.416Z,9792
2017-09-11T07:03:24.268Z,9492
2017-09-11T07:04:18.030Z,9288
2017-09-11T07:05:06.035Z,9020
2017-09-11T07:06:00.631Z,8908
2017-09-11T07:06:55.082Z,9488
2017-09-11T07:07:55.268Z,10232
2017-09-11T07:08:50.626Z,11076
2017-09-11T07:09:50.284Z,12336
2017-09-11T07:10:44.378Z,12832
2017-09-11T07:11:45.456Z,13196
2017-09-11T07:12:46.494Z,13600
2017-09-11T07:13:46.333Z,14780
2017-09-11T07:14:46.397Z,16152
2017-09-11T07:15:40.463Z,17536
2017-09-11T07:16:29.789Z,17920
2017-09-11T07:17:19.118Z,18304
2017-09-11T07:18:19.551Z,19072
2017-09-11T07:19:20.640Z,22784
2017-09-11T07:20:20.532Z,21056
2017-09-11T07:21:16.009Z,15860
2017-09-11T07:22:15.745Z,14928
2017-09-11T07:23:10.781Z,17824
2017-09-11T07:24:05.948Z,20448
2017-09-11T07:24:54.826Z,18752
2017-09-11T07:25:43.937Z,16372
2017-09-11T07:26:37.924Z,15272
2017-09-11T07:27:38.015Z,14376
2017-09-11T07:28:26.984Z,14176
2017-09-11T07:29:21.176Z,15056
2017-09-11T07:30:10.093Z,14612
2017-09-11T07:31:05.098Z,14848
2017-09-11T07:31:54.628Z,15904
2017-09-11T07:32:43.326Z,18656
2017-09-11T07:33:37.348Z,19776
2017-09-11T07:34:26.348Z,21920
2017-09-11T07:35:20.387Z,16596
2017-09-11T07:36:14.477Z,15492
2017-09-11T07:37:14.412Z,14808
2017-09-11T07:38:08.794Z,14960
2017-09-11T07:39:04.124Z,16320
2017-09-11T07:40:03.610Z,25376
2017-09-11T07:40:52.640Z,20960
2017-09-11T07:41:46.669Z,18368
2017-09-11T07:42:41.820Z,19360
2017-09-11T07:43:36.859Z,20864
2017-09-11T07:44:31.732Z,23136
2017-09-11T07:45:25.903Z,23392
2017-09-11T07:46:21.004Z,20608
2017-09-11T07:47:20.964Z,19296
2017-09-11T07:48:14.975Z,18112
2017-09-11T07:49:04.205Z,17760
2017-09-11T07:49:58.280Z,17312
2017-09-11T07:50:52.401Z,16468
2017-09-11T07:51:53.162Z,16320
2017-09-11T07:52:48.755Z,16596
2017-09-11T07:53:42.444Z,16472
2017-09-11T07:54:42.773Z,15884
2017-09-11T07:55:37.606Z,15372
2017-09-11T07:56:31.406Z,14408
2017-09-11T07:57:31.353Z,13352
2017-09-11T07:58:25.654Z,12440
2017-09-11T07:59:14.433Z,12700
2017-09-11T08:00:14.668Z,12876
2017-09-11T08:01:08.961Z,12360
2017-09-11T08:02:02.655Z,12880
2017-09-11T08:02:57.720Z,14692
2017-09-11T08:03:47.143Z,17536
2017-09-11T08:04:40.743Z,22112
2017-09-11T08:05:34.977Z,19744
2017-09-11T08:06:28.976Z,24224
2017-09-11T08:07:29.319Z,19328
2017-09-11T08:08:22.898Z,20064
2017-09-11T08:09:16.999Z,27968
2017-09-11T08:10:17.478Z,28096
2017-09-11T08:11:11.281Z,71520
2017-09-11T08:12:11.049Z,69856
2017-09-11T08:13:05.513Z,66336
2017-09-11T08:14:05.139Z,33664
2017-09-11T08:15:00.106Z,25376
2017-09-11T08:15:54.224Z,19520
2017-09-11T08:16:49.649Z,12512
2017-09-11T08:17:50.402Z,14532
2017-09-11T08:18:44.431Z,14220
2017-09-11T08:19:44.437Z,16704
2017-09-11T08:20:38.847Z,21920
2017-09-11T08:21:32.880Z,25920
2017-09-11T08:22:21.991Z,21216
2017-09-11T08:23:16.024Z,40288
2017-09-11T08:24:10.685Z,36736
2017-09-11T08:25:11.258Z,26048
2017-09-11T08:26:04.696Z,29568
2017-09-11T08:26:58.767Z,69312
2017-09-11T08:27:59.845Z,38592
2017-09-11T08:28:59.842Z,39808
2017-09-11T08:29:54.987Z,30240
2017-09-11T08:30:50.378Z,23488
2017-09-11T08:31:51.136Z,20096
2017-09-11T08:32:45.503Z,19392
2017-09-11T08:33:45.377Z,62976
2017-09-11T08:34:34.102Z,24064
2017-09-11T08:35:28.723Z,18784
2017-09-11T08:36:17.179Z,15656
2017-09-11T08:37:11.425Z,15604
2017-09-11T08:38:06.582Z,24864
2017-09-11T08:39:01.825Z,28224
2017-09-11T08:39:50.772Z,33984
2017-09-11T08:40:45.934Z,24256
2017-09-11T08:41:33.969Z,23328
2017-09-11T08:42:22.999Z,25408
2017-09-11T08:43:18.122Z,24320
2017-09-11T08:44:06.127Z,22496
2017-09-11T08:45:00.312Z,24352
2017-09-11T08:46:00.337Z,65408
2017-09-11T08:46:55.234Z,23360
2017-09-11T08:47:49.328Z,19744
2017-09-11T08:48:44.394Z,19008
2017-09-11T08:49:38.853Z,67968
2017-09-11T08:50:27.447Z,64288
2017-09-11T08:51:21.512Z,60160
2017-09-11T08:52:15.556Z,66144
2017-09-11T08:53:15.701Z,67808
2017-09-11T08:54:10.692Z,66208
2017-09-11T08:54:59.990Z,64224
2017-09-11T08:55:53.657Z,27808
2017-09-11T08:56:47.772Z,71616
2017-09-11T08:57:35.736Z,77120
2017-09-11T08:58:35.912Z,49920
2017-09-11T08:59:25.002Z,68288
2017-09-11T09:00:18.972Z,57120
2017-09-11T09:01:14.118Z,65728
2017-09-11T09:02:03.144Z,28704
2017-09-11T09:02:57.136Z,24800
2017-09-11T09:03:46.251Z,22208
2017-09-11T09:04:46.328Z,21472
2017-09-11T09:05:41.383Z,20064
2017-09-11T09:06:30.373Z,14836
2017-09-11T09:07:18.411Z,12460
2017-09-11T09:08:12.555Z,11844
2017-09-11T09:09:06.558Z,10696
2017-09-11T09:10:07.685Z,9516
2017-09-11T09:11:07.658Z,10004
2017-09-11T09:12:02.591Z,10816
2017-09-11T09:12:50.699Z,12200
2017-09-11T09:13:45.724Z,14664
2017-09-11T09:14:39.792Z,66688
2017-09-11T09:15:33.969Z,73056
2017-09-11T09:16:33.807Z,48768
2017-09-11T09:17:27.487Z,83520
2017-09-11T09:18:22.094Z,82176
2017-09-11T09:19:17.192Z,40608
2017-09-11T09:20:06.143Z,79200
2017-09-11T09:21:00.272Z,22592
2017-09-11T09:22:00.621Z,42112
2017-09-11T09:22:54.277Z,55360
2017-09-11T09:23:49.342Z,86080
2017-09-11T09:24:38.418Z,85440
2017-09-11T09:25:32.497Z,21824
2017-09-11T09:26:26.365Z,23136
2017-09-11T09:27:20.464Z,85728
2017-09-11T09:28:20.491Z,88672
2017-09-11T09:29:09.531Z,77888
2017-09-11T09:29:58.521Z,87200
2017-09-11T09:30:52.639Z,84032
2017-09-11T09:31:47.858Z,76928
2017-09-11T09:32:41.866Z,58560
2017-09-11T09:33:36.806Z,68544
2017-09-11T09:34:32.087Z,85792
2017-09-11T09:35:26.024Z,82560
2017-09-11T09:36:15.138Z,82560
2017-09-11T09:37:10.170Z,30272
2017-09-11T09:38:04.236Z,28512
2017-09-11T09:39:04.313Z,82912
2017-09-11T09:39:59.308Z,65440
2017-09-11T09:40:53.432Z,78880
2017-09-11T09:41:42.432Z,77600
2017-09-11T09:42:31.556Z,76896
2017-09-11T09:43:25.539Z,75328
2017-09-11T09:44:20.632Z,74464
2017-09-11T09:45:15.725Z,73568
2017-09-11T09:46:15.726Z,75968
2017-09-11T09:47:09.709Z,77824
2017-09-11T09:48:09.859Z,80832
2017-09-11T09:49:03.960Z,84096
2017-09-11T09:50:03.964Z,86112
2017-09-11T09:50:58.067Z,57472
2017-09-11T09:51:58.018Z,51808
2017-09-11T09:52:52.128Z,77472
2017-09-11T09:53:46.081Z,76960
2017-09-11T09:54:40.292Z,74464
2017-09-11T09:55:34.268Z,25600
2017-09-11T09:56:23.240Z,23456
2017-09-11T09:57:17.361Z,61760
2017-09-11T09:58:17.467Z,55712
2017-09-11T09:59:11.482Z,52672
2017-09-11T10:00:00.634Z,52768
2017-09-11T10:01:00.655Z,53024
2017-09-11T10:01:54.552Z,54432
2017-09-11T10:02:48.723Z,36224
2017-09-11T10:03:42.694Z,61664
2017-09-11T10:04:36.847Z,24448
2017-09-11T10:05:32.013Z,24160
2017-09-11T10:06:26.961Z,25952
2017-09-11T10:07:21.030Z,28800
2017-09-11T10:08:21.103Z,31104
2017-09-11T10:09:21.100Z,18880
2017-09-11T10:10:16.161Z,15108
2017-09-11T10:11:11.143Z,10684
2017-09-11T10:12:11.257Z,8960
2017-09-11T10:13:05.416Z,8704
2017-09-11T10:14:06.291Z,8948
2017-09-11T10:14:55.457Z,10984
2017-09-11T10:15:50.327Z,15304
2017-09-11T10:16:45.860Z,23712
2017-09-11T10:17:40.228Z,27488
2017-09-11T10:18:35.165Z,28384
2017-09-11T10:19:29.329Z,62944
2017-09-11T10:20:24.339Z,25536
2017-09-11T10:21:19.774Z,24640
2017-09-11T10:22:08.614Z,24800
2017-09-11T10:23:03.815Z,22432
2017-09-11T10:23:57.707Z,18912
2017-09-11T10:24:53.017Z,14968
2017-09-11T10:25:48.008Z,11840
2017-09-11T10:26:43.018Z,9920
2017-09-11T10:27:37.925Z,9284
2017-09-11T10:28:38.143Z,9268
2017-09-11T10:29:33.208Z,9772
2017-09-11T10:30:28.192Z,11800
2017-09-11T10:31:21.878Z,14836
2017-09-11T10:32:09.864Z,20992
2017-09-11T10:33:04.168Z,81792
2017-09-11T10:33:52.075Z,43040
2017-09-11T10:34:53.528Z,74048
2017-09-11T10:35:47.265Z,68352
2017-09-11T10:36:47.481Z,67328
2017-09-11T10:37:42.509Z,24576
2017-09-11T10:38:36.604Z,23200
2017-09-11T10:39:31.851Z,64160
2017-09-11T10:40:31.625Z,60832
2017-09-11T10:41:25.626Z,44096
2017-09-11T10:42:13.849Z,61504
2017-09-11T10:43:08.011Z,68320
2017-09-11T10:43:57.071Z,56416
2017-09-11T10:44:57.035Z,18112
2017-09-11T10:45:52.078Z,16256
2017-09-11T10:46:45.818Z,15816
2017-09-11T10:47:39.788Z,14452
2017-09-11T10:48:35.273Z,14364
2017-09-11T10:49:29.215Z,14068
2017-09-11T10:50:24.491Z,13424
2017-09-11T10:51:18.990Z,13840
2017-09-11T10:52:13.578Z,13336
2017-09-11T10:53:13.209Z,13020
2017-09-11T10:54:08.421Z,13540
2017-09-11T10:54:57.117Z,14436
2017-09-11T10:55:52.414Z,14908
2017-09-11T10:56:46.421Z,17344
2017-09-11T10:57:40.660Z,50240
2017-09-11T10:58:35.624Z,93888
2017-09-11T10:59:29.621Z,99520
2017-09-11T11:00:19.218Z,94336
2017-09-11T11:01:18.950Z,91296
2017-09-11T11:02:19.087Z,86816
2017-09-11T11:03:13.069Z,84224
2017-09-11T11:04:07.096Z,79936
2017-09-11T11:05:02.018Z,75360
2017-09-11T11:05:57.229Z,76992
2017-09-11T11:06:52.470Z,27520
2017-09-11T11:07:41.435Z,46560
2017-09-11T11:08:36.054Z,28224
2017-09-11T11:09:36.385Z,24704
2017-09-11T11:10:30.385Z,85728
2017-09-11T11:11:19.432Z,72288
2017-09-11T11:12:19.633Z,20224
2017-09-11T11:13:19.548Z,22816
2017-09-11T11:14:13.502Z,26016
2017-09-11T11:15:07.770Z,84192
2017-09-11T11:16:01.869Z,35968
2017-09-11T11:17:01.788Z,25696
2017-09-11T11:17:55.853Z,27072
2017-09-11T11:18:55.876Z,37600
2017-09-11T11:19:49.987Z,36800
2017-09-11T11:20:44.035Z,49696
2017-09-11T11:21:38.144Z,31680
2017-09-11T11:22:38.223Z,25056
2017-09-11T11:23:27.193Z,24448
2017-09-11T11:24:22.294Z,26016
2017-09-11T11:25:16.230Z,138880
2017-09-11T11:26:10.362Z,91456
2017-09-11T11:27:05.518Z,38848
2017-09-11T11:27:59.468Z,32000
2017-09-11T11:28:54.439Z,30560
2017-09-11T11:29:49.547Z,27648
2017-09-11T11:30:43.618Z,26944
2017-09-11T11:31:43.601Z,28736
2017-09-11T11:32:37.716Z,30944
2017-09-11T11:33:33.010Z,34880
2017-09-11T11:34:32.824Z,54624
2017-09-11T11:35:26.845Z,69440
2017-09-11T11:36:26.875Z,37184
2017-09-11T11:37:26.910Z,59424
2017-09-11T11:38:27.009Z,25280
2017-09-11T11:39:22.275Z,20480
2017-09-11T11:40:22.205Z,22112
2017-09-11T11:41:17.204Z,21920
2017-09-11T11:42:11.315Z,16960
2017-09-11T11:43:05.276Z,13288
2017-09-11T11:44:05.459Z,11816
2017-09-11T11:44:59.186Z,14216
2017-09-11T11:45:53.330Z,20064
2017-09-11T11:46:48.474Z,83904
2017-09-11T11:47:41.999Z,24448
2017-09-11T11:48:36.060Z,23712
2017-09-11T11:49:36.698Z,20928
2017-09-11T11:50:30.350Z,16092
2017-09-11T11:51:19.482Z,15144
2017-09-11T11:52:19.662Z,14608
2017-09-11T11:53:19.555Z,14512
2017-09-11T11:54:08.861Z,12948
2017-09-11T11:55:03.920Z,11192
2017-09-11T11:55:57.966Z,11172
2017-09-11T11:56:57.975Z,12884
2017-09-11T11:57:52.034Z,66560
2017-09-11T11:58:52.036Z,33120
2017-09-11T11:59:41.123Z,80064
2017-09-11T12:00:30.327Z,35936
2017-09-11T12:01:24.299Z,29664
2017-09-11T12:02:18.377Z,83392
2017-09-11T12:03:12.336Z,26688
2017-09-11T12:04:00.380Z,21824
2017-09-11T12:04:48.461Z,72576
2017-09-11T12:05:42.269Z,21216
2017-09-11T12:06:36.147Z,18944
2017-09-11T12:07:30.467Z,17664
2017-09-11T12:08:19.312Z,21824
2017-09-11T12:09:13.405Z,66592
2017-09-11T12:10:08.647Z,78720
2017-09-11T12:11:04.008Z,58880
2017-09-11T12:11:58.700Z,77024
2017-09-11T12:12:58.890Z,79072
2017-09-11T12:13:47.955Z,76032
2017-09-11T12:14:36.920Z,29888
2017-09-11T12:15:31.167Z,81920
2017-09-11T12:16:25.100Z,74944
2017-09-11T12:17:25.306Z,80256
2017-09-11T12:18:20.070Z,76064
2017-09-11T12:19:14.303Z,27072
2017-09-11T12:20:03.364Z,67424
2017-09-11T12:21:04.474Z,66080
2017-09-11T12:22:05.386Z,21632
2017-09-11T12:22:59.858Z,22688
2017-09-11T12:23:54.558Z,23360
2017-09-11T12:24:55.610Z,75584
2017-09-11T12:25:56.672Z,31200
2017-09-11T12:26:57.689Z,33952
2017-09-11T12:27:51.750Z,27232
2017-09-11T12:28:45.829Z,22432
2017-09-11T12:29:45.901Z,21088
2017-09-11T12:30:39.969Z,18624